createdAt,value
2022-11-10T00:02:56.220Z,10.49
2022-11-10T00:06:16.250Z,10.53
2022-11-10T00:09:35.988Z,10.53
2022-11-10T00:12:59.459Z,10.43
2022-11-10T00:16:38.129Z,10.37
2022-11-10T00:19:58.431Z,10.30
2022-11-10T00:23:18.712Z,10.23
2022-11-10T00:26:38.913Z,10.14
2022-11-10T00:29:58.713Z,10.03
2022-11-10T00:33:18.946Z,10.00
2022-11-10T00:36:39.008Z,9.98
2022-11-10T00:39:58.992Z,9.98
2022-11-10T00:43:23.834Z,9.87
2022-11-10T00:46:46.508Z,9.82
2022-11-10T00:50:06.978Z,9.85
2022-11-10T00:53:27.102Z,9.85
2022-11-10T00:56:46.941Z,9.88
2022-11-10T01:00:07.224Z,9.93
2022-11-10T01:03:27.193Z,9.95
2022-11-10T01:06:48.338Z,9.95
2022-11-10T01:10:08.745Z,9.98
2022-11-10T01:13:29.003Z,10.05
2022-11-10T01:16:48.881Z,10.10
2022-11-10T01:20:09.159Z,10.16
2022-11-10T01:23:29.342Z,10.20
2022-11-10T01:26:49.761Z,10.24
2022-11-10T01:30:09.849Z,10.32
2022-11-10T01:33:29.913Z,10.39
2022-11-10T01:36:49.951Z,10.54
2022-11-10T01:40:10.356Z,10.63
2022-11-10T01:43:30.937Z,10.66
2022-11-10T01:46:51.022Z,10.61
2022-11-10T01:50:11.341Z,10.54
2022-11-10T01:53:31.996Z,10.52
2022-11-10T01:56:53.313Z,10.59
2022-11-10T02:00:13.684Z,10.70
2022-11-10T02:03:39.785Z,10.62
2022-11-10T02:07:00.341Z,10.48
2022-11-10T02:10:20.751Z,10.43
2022-11-10T02:13:40.941Z,10.45
2022-11-10T02:17:00.821Z,10.53
2022-11-10T02:20:21.245Z,10.54
2022-11-10T02:23:46.075Z,10.56
2022-11-10T02:27:06.207Z,10.60
2022-11-10T02:30:27.866Z,10.72
2022-11-10T02:33:48.209Z,10.79
2022-11-10T02:37:07.894Z,10.91
2022-11-10T02:40:27.703Z,11.03
2022-11-10T02:43:47.641Z,11.15
2022-11-10T02:47:12.531Z,11.17
2022-11-10T02:50:32.433Z,11.13
2022-11-10T02:53:52.345Z,11.12
2022-11-10T02:57:12.885Z,11.14
2022-11-10T03:00:32.750Z,11.17
2022-11-10T03:03:52.526Z,11.18
2022-11-10T03:07:12.467Z,11.15
2022-11-10T03:10:32.831Z,11.14
2022-11-10T03:14:01.445Z,11.13
2022-11-10T03:17:22.262Z,11.14
2022-11-10T03:20:42.271Z,11.17
2022-11-10T03:24:02.243Z,11.17
2022-11-10T03:27:22.095Z,11.13
2022-11-10T03:30:42.740Z,11.14
2022-11-10T03:34:02.913Z,11.14
2022-11-10T03:37:22.895Z,11.16
2022-11-10T03:41:17.127Z,11.30
2022-11-10T03:44:23.101Z,11.34
2022-11-10T03:47:49.497Z,11.13
2022-11-10T03:51:09.323Z,11.05
2022-11-10T03:54:29.180Z,10.91
2022-11-10T03:57:49.077Z,10.69
2022-11-10T04:01:09.078Z,10.57
2022-11-10T04:04:48.159Z,10.53
2022-11-10T04:08:31.103Z,10.57
2022-11-10T04:12:09.999Z,10.70
2022-11-10T04:15:42.301Z,10.75
2022-11-10T04:19:02.290Z,10.80
2022-11-10T04:22:42.201Z,10.85
2022-11-10T04:26:22.106Z,10.86
2022-11-10T04:29:42.311Z,10.99
2022-11-10T04:33:02.299Z,10.92
2022-11-10T04:36:23.652Z,10.94
2022-11-10T04:39:43.563Z,10.88
2022-11-10T04:43:03.612Z,10.95
2022-11-10T04:46:23.628Z,10.92
2022-11-10T04:49:43.506Z,10.93
2022-11-10T04:53:03.436Z,10.94
2022-11-10T04:56:23.960Z,10.95
2022-11-10T04:59:44.072Z,10.93
2022-11-10T05:03:05.307Z,10.94
2022-11-10T05:06:25.380Z,10.92
2022-11-10T05:09:45.652Z,10.90
2022-11-10T05:13:05.727Z,10.95
2022-11-10T05:16:25.945Z,11.06
2022-11-10T05:19:47.441Z,11.10
2022-11-10T05:23:26.468Z,11.10
2022-11-10T05:26:46.618Z,11.10
2022-11-10T05:30:06.971Z,11.09
2022-11-10T05:33:27.034Z,11.27
2022-11-10T05:36:46.921Z,11.26
2022-11-10T05:40:07.224Z,11.28
2022-11-10T05:43:27.193Z,11.25
2022-11-10T05:46:48.429Z,11.32
2022-11-10T05:50:08.805Z,11.34
2022-11-10T05:53:28.896Z,11.37
2022-11-10T05:56:48.963Z,11.40
2022-11-10T06:00:09.799Z,11.37
2022-11-10T06:03:30.033Z,11.42
2022-11-10T06:06:50.410Z,11.40
2022-11-10T06:10:10.825Z,11.53
2022-11-10T06:13:30.762Z,11.57
2022-11-10T06:16:50.628Z,11.58
2022-11-10T06:20:10.716Z,11.58
2022-11-10T06:23:30.592Z,11.58
2022-11-10T06:26:50.416Z,11.58
2022-11-10T06:30:10.632Z,11.62
2022-11-10T06:33:30.469Z,11.60
2022-11-10T06:36:50.368Z,11.52
2022-11-10T06:40:10.804Z,11.42
2022-11-10T06:43:30.766Z,11.46
2022-11-10T06:46:50.613Z,11.45
2022-11-10T06:50:10.551Z,11.33
2022-11-10T06:53:30.621Z,11.29
2022-11-10T06:56:51.035Z,11.30
2022-11-10T07:00:11.342Z,11.38
2022-11-10T07:03:32.387Z,11.34
2022-11-10T07:06:52.525Z,11.38
2022-11-10T07:10:12.675Z,11.35
2022-11-10T07:13:32.594Z,11.26
2022-11-10T07:16:52.489Z,11.21
2022-11-10T07:20:12.421Z,11.25
2022-11-10T07:23:33.571Z,11.36
2022-11-10T07:26:53.469Z,11.40
2022-11-10T07:30:13.436Z,11.39
2022-11-10T07:33:34.505Z,11.47
2022-11-10T07:36:54.995Z,11.49
2022-11-10T07:40:15.676Z,11.54
2022-11-10T07:43:35.751Z,11.58
2022-11-10T07:46:56.093Z,11.63
2022-11-10T07:50:16.642Z,11.75
2022-11-10T07:53:36.512Z,11.86
2022-11-10T07:56:56.560Z,11.94
2022-11-10T08:00:16.863Z,11.88
2022-11-10T08:03:36.580Z,11.87
2022-11-10T08:06:58.769Z,11.86
2022-11-10T08:10:18.872Z,11.79
2022-11-10T08:13:39.916Z,11.72
2022-11-10T08:16:59.872Z,11.80
2022-11-10T08:20:20.309Z,11.72
2022-11-10T08:23:40.203Z,11.88
2022-11-10T08:27:00.628Z,11.77
2022-11-10T08:30:20.493Z,11.56
2022-11-10T08:33:40.525Z,11.64
2022-11-10T08:37:01.133Z,11.89
2022-11-10T08:40:21.607Z,12.10
2022-11-10T08:43:42.049Z,12.25
2022-11-10T08:47:02.207Z,12.38
2022-11-10T08:50:22.184Z,12.46
2022-11-10T08:53:42.150Z,12.55
2022-11-10T08:57:03.883Z,12.64
2022-11-10T09:00:24.117Z,12.74
2022-11-10T09:03:44.296Z,12.67
2022-11-10T09:07:05.020Z,12.75
2022-11-10T09:10:25.381Z,12.66
2022-11-10T09:13:45.436Z,12.58
2022-11-10T09:17:05.254Z,12.57
2022-11-10T09:20:26.250Z,12.42
2022-11-10T09:23:46.115Z,12.09
2022-11-10T09:27:06.784Z,11.84
2022-11-10T09:30:26.642Z,11.96
2022-11-10T09:33:46.713Z,11.98
2022-11-10T09:37:06.558Z,12.14
2022-11-10T09:40:39.518Z,12.41
2022-11-10T09:44:04.057Z,12.39
2022-11-10T09:51:07.232Z,12.49
2022-11-10T09:54:33.817Z,12.52
2022-11-10T09:57:53.769Z,12.63
2022-11-10T10:01:32.861Z,12.59
2022-11-10T10:04:53.216Z,12.67
2022-11-10T10:08:20.089Z,12.62
2022-11-10T10:11:53.264Z,12.68
2022-11-10T10:15:19.601Z,12.74
2022-11-10T10:18:39.830Z,12.70
2022-11-10T10:22:18.992Z,12.62
2022-11-10T10:25:39.315Z,12.59
2022-11-10T10:29:02.193Z,12.65
2022-11-10T10:32:22.777Z,12.81
2022-11-10T10:35:43.291Z,12.93
2022-11-10T10:39:05.675Z,12.88
2022-11-10T10:42:31.136Z,12.82
2022-11-10T10:46:04.369Z,13.35
2022-11-10T10:49:31.570Z,13.76
2022-11-10T10:53:05.584Z,13.53
2022-11-10T10:56:27.205Z,13.12
2022-11-10T10:59:47.334Z,12.65
2022-11-10T11:03:24.720Z,12.38
2022-11-10T11:06:45.008Z,12.31
2022-11-10T11:10:22.388Z,12.34
2022-11-10T11:13:42.506Z,12.19
2022-11-10T11:17:16.884Z,12.30
2022-11-10T11:20:51.938Z,12.26
2022-11-10T11:24:21.072Z,12.26
2022-11-10T11:27:56.465Z,12.21
2022-11-10T11:31:22.544Z,12.47
2022-11-10T11:34:48.741Z,12.58
2022-11-10T11:38:14.683Z,12.68
2022-11-10T11:41:50.639Z,12.71
2022-11-10T11:45:18.489Z,12.62
2022-11-10T11:48:44.248Z,12.30
2022-11-10T11:52:04.219Z,12.27
2022-11-10T11:55:24.158Z,12.43
2022-11-10T11:58:49.560Z,12.53
2022-11-10T12:02:28.251Z,12.62
2022-11-10T12:05:51.584Z,12.63
2022-11-10T12:09:17.458Z,12.60
2022-11-10T12:12:43.455Z,12.57
2022-11-10T12:16:23.088Z,12.65
2022-11-10T12:19:45.944Z,12.47
2022-11-10T12:23:12.585Z,12.39
2022-11-10T12:26:53.868Z,12.38
2022-11-10T12:30:14.673Z,12.39
2022-11-10T12:33:40.753Z,12.41
2022-11-10T12:37:06.809Z,12.57
2022-11-10T12:40:41.998Z,12.66
2022-11-10T12:44:04.649Z,12.76
2022-11-10T12:47:27.236Z,12.79
2022-11-10T12:50:52.886Z,13.12
2022-11-10T12:54:16.646Z,13.16
2022-11-10T12:57:43.096Z,13.57
2022-11-10T13:01:03.976Z,13.44
2022-11-10T13:04:24.297Z,13.36
2022-11-10T13:07:44.663Z,13.14
2022-11-10T13:11:18.587Z,12.96
2022-11-10T13:14:38.689Z,12.83
2022-11-10T13:17:59.168Z,12.74
2022-11-10T13:21:19.032Z,12.89
2022-11-10T13:24:39.672Z,12.69
2022-11-10T13:27:59.753Z,12.56
2022-11-10T13:31:30.988Z,12.81
2022-11-10T13:34:51.476Z,13.12
2022-11-10T13:38:30.417Z,13.19
2022-11-10T13:41:51.079Z,13.22
2022-11-10T13:45:30.060Z,13.22
2022-11-10T13:48:55.536Z,13.18
2022-11-10T13:52:15.573Z,13.19
2022-11-10T13:55:38.586Z,13.27
2022-11-10T13:58:58.555Z,13.24
2022-11-10T14:02:34.071Z,13.30
2022-11-10T14:05:57.342Z,13.30
2022-11-10T14:09:17.423Z,13.28
2022-11-10T14:12:37.160Z,13.30
2022-11-10T14:15:56.978Z,13.31
2022-11-10T14:19:23.652Z,13.38
2022-11-10T14:22:43.886Z,13.66
2022-11-10T14:26:05.328Z,14.08
2022-11-10T14:29:30.354Z,14.78
2022-11-10T14:32:56.661Z,15.42
2022-11-10T14:36:16.888Z,15.13
2022-11-10T14:39:36.979Z,15.28
2022-11-10T14:42:57.217Z,15.20
2022-11-10T14:46:17.304Z,14.75
2022-11-10T14:49:37.654Z,14.65
2022-11-10T14:53:02.623Z,14.91
2022-11-10T14:56:23.736Z,14.55
2022-11-10T14:59:43.764Z,14.68
2022-11-10T15:03:04.028Z,14.68
2022-11-10T15:06:24.364Z,14.76
2022-11-10T15:10:01.431Z,14.10
2022-11-10T15:13:27.595Z,13.81
2022-11-10T15:17:07.634Z,13.76
2022-11-10T15:20:27.917Z,13.62
2022-11-10T15:23:57.491Z,13.58
2022-11-10T15:27:24.393Z,13.49
2022-11-10T15:30:58.020Z,13.52
2022-11-10T15:34:47.685Z,13.46
2022-11-10T15:38:19.649Z,13.37
2022-11-10T15:41:45.268Z,13.39
2022-11-10T15:45:05.663Z,13.40
2022-11-10T15:48:26.657Z,13.28
2022-11-10T15:51:46.599Z,13.21
2022-11-10T15:55:06.634Z,13.15
2022-11-10T15:58:27.350Z,13.07
2022-11-10T16:01:47.391Z,13.04
2022-11-10T16:05:11.476Z,12.99
2022-11-10T16:08:32.291Z,12.98
2022-11-10T16:11:52.407Z,12.96
2022-11-10T16:15:14.346Z,12.87
2022-11-10T16:18:34.226Z,12.85
2022-11-10T16:21:54.497Z,12.84
2022-11-10T16:25:21.569Z,12.84
2022-11-10T16:28:44.418Z,12.81
2022-11-10T16:32:04.696Z,12.79
2022-11-10T16:35:24.767Z,12.78
2022-11-10T16:38:45.360Z,12.89
2022-11-10T16:42:05.307Z,12.91
2022-11-10T16:45:30.193Z,12.89
2022-11-10T16:48:50.574Z,12.83
2022-11-10T16:52:16.691Z,12.84
2022-11-10T16:55:36.881Z,12.89
2022-11-10T16:58:56.753Z,12.91
2022-11-10T17:02:28.199Z,12.99
2022-11-10T17:05:48.239Z,13.02
2022-11-10T17:09:09.233Z,13.03
2022-11-10T17:12:29.249Z,13.06
2022-11-10T17:15:49.075Z,13.11
2022-11-10T17:19:23.495Z,13.15
2022-11-10T17:22:44.471Z,13.23
2022-11-10T17:26:05.093Z,13.18
2022-11-10T17:29:25.739Z,13.18
2022-11-10T17:33:04.077Z,13.07
2022-11-10T17:36:25.832Z,13.01
2022-11-10T17:39:46.151Z,12.96
2022-11-10T17:43:08.615Z,12.93
2022-11-10T17:46:28.807Z,12.93
2022-11-10T17:49:48.811Z,12.90
2022-11-10T17:53:17.817Z,12.89
2022-11-10T17:56:37.761Z,12.93
2022-11-10T17:59:58.219Z,12.95
2022-11-10T18:03:19.895Z,12.97
2022-11-10T18:06:40.112Z,13.04
2022-11-10T18:10:00.383Z,13.08
2022-11-10T18:13:20.572Z,13.09
2022-11-10T18:16:41.771Z,13.06
2022-11-10T18:20:01.579Z,13.08
2022-11-10T18:23:21.900Z,13.05
2022-11-10T18:26:42.641Z,13.04
2022-11-10T18:30:03.265Z,13.04
2022-11-10T18:33:23.494Z,13.00
2022-11-10T18:36:43.601Z,13.02
2022-11-10T18:40:03.727Z,13.07
2022-11-10T18:43:24.162Z,13.01
2022-11-10T18:46:45.229Z,13.02
2022-11-10T18:50:05.724Z,13.02
2022-11-10T18:53:25.867Z,12.99
2022-11-10T18:56:45.846Z,12.94
2022-11-10T19:00:07.115Z,12.71
2022-11-10T19:03:26.847Z,12.68
2022-11-10T19:06:51.847Z,12.78
2022-11-10T19:10:12.081Z,12.90
2022-11-10T19:13:32.096Z,12.92
2022-11-10T19:16:52.137Z,12.91
2022-11-10T19:20:14.684Z,12.72
2022-11-10T19:23:35.100Z,12.61
2022-11-10T19:26:55.072Z,12.57
2022-11-10T19:30:15.135Z,12.64
2022-11-10T19:33:36.335Z,12.71
2022-11-10T19:36:56.890Z,12.76
2022-11-10T19:40:16.899Z,12.79
2022-11-10T19:43:36.810Z,12.83
2022-11-10T19:46:56.854Z,12.99
2022-11-10T19:50:16.708Z,13.02
2022-11-10T19:53:36.732Z,13.01
2022-11-10T19:56:56.595Z,13.08
2022-11-10T20:00:16.892Z,13.10
2022-11-10T20:03:36.924Z,13.10
2022-11-10T20:07:15.677Z,13.09
2022-11-10T20:10:35.902Z,13.12
2022-11-10T20:13:56.918Z,13.14
2022-11-10T20:17:17.228Z,13.14
2022-11-10T20:20:37.621Z,13.25
2022-11-10T20:23:57.771Z,13.21
2022-11-10T20:27:18.127Z,13.18
2022-11-10T20:30:38.221Z,13.19
2022-11-10T20:33:58.347Z,13.23
2022-11-10T20:37:18.505Z,13.28
2022-11-10T20:40:44.515Z,13.34
2022-11-10T20:44:05.030Z,13.36
2022-11-10T20:47:26.358Z,13.30
2022-11-10T20:50:46.575Z,13.30
2022-11-10T20:54:06.393Z,13.27
2022-11-10T20:57:26.309Z,13.26
2022-11-10T21:00:46.277Z,13.30
2022-11-10T21:04:06.781Z,13.28
2022-11-10T21:07:27.486Z,13.31
2022-11-10T21:10:51.910Z,13.32
2022-11-10T21:14:11.984Z,13.27
2022-11-10T21:17:31.904Z,13.22
2022-11-10T21:20:52.883Z,13.29
2022-11-10T21:24:13.541Z,13.28
2022-11-10T21:27:33.900Z,13.27
2022-11-10T21:31:01.639Z,13.31
2022-11-10T21:34:21.656Z,13.28
2022-11-10T21:37:41.601Z,13.34
2022-11-10T21:41:01.393Z,13.33
2022-11-10T21:44:21.194Z,13.39
2022-11-10T21:47:41.289Z,13.37
2022-11-10T21:51:05.647Z,13.37
2022-11-10T21:54:25.748Z,13.32
2022-11-10T21:57:45.971Z,13.31
2022-11-10T22:01:16.888Z,13.33
2022-11-10T22:04:36.998Z,13.35
2022-11-10T22:07:57.501Z,13.36
2022-11-10T22:11:39.761Z,13.40
2022-11-10T22:15:18.643Z,13.44
2022-11-10T22:18:39.725Z,13.50
2022-11-10T22:22:03.672Z,13.48
2022-11-10T22:25:24.039Z,13.43
2022-11-10T22:28:43.973Z,13.39
2022-11-10T22:32:03.938Z,13.38
2022-11-10T22:35:42.669Z,13.37
2022-11-10T22:39:04.086Z,13.34
2022-11-10T22:42:43.313Z,13.40
2022-11-10T22:46:03.572Z,13.44
2022-11-10T22:49:23.979Z,13.50
2022-11-10T22:52:44.093Z,13.50
2022-11-10T22:56:04.294Z,13.55
2022-11-10T22:59:24.424Z,13.53
2022-11-10T23:02:44.837Z,13.49
2022-11-10T23:06:05.148Z,13.53
2022-11-10T23:09:25.362Z,13.52
2022-11-10T23:12:45.272Z,13.48
2022-11-10T23:16:06.580Z,13.47
2022-11-10T23:19:31.409Z,13.48
2022-11-10T23:22:51.235Z,13.45
2022-11-10T23:26:15.132Z,13.39
2022-11-10T23:29:34.978Z,13.40
2022-11-10T23:32:55.233Z,13.41
2022-11-10T23:36:16.349Z,13.36
2022-11-10T23:39:36.360Z,13.33
2022-11-10T23:42:56.111Z,13.30
2022-11-10T23:46:15.935Z,13.29
2022-11-10T23:49:35.836Z,13.29
2022-11-10T23:52:55.725Z,13.25
2022-11-10T23:56:15.884Z,13.22
2022-11-10T23:59:36.035Z,13.22
